Forside
METAR-TAF:

METAR-TAF

Lufthavne :

Derry, Nordirland

Breddekreds: 55-03N, længdekreds: 007-09W, højde: 9 m

Aktuelle vejr

Denne rapport blev lavet for 8 timer og 32 minutter siden, kl. 16:50 UTC
Vind 16 kt fra vestsydvest
Temperatur 18°C
Fugtighed 49%
Tryk 1029 hPa
Sigt 10 km eller mere
Spredte skyer i en højde af 4000 ft

METAR: EGAE 241650Z 24016KT 9999 SCT040 18/07 Q1029

Tid: 02:22 (01:22 UTC)

Vejrudsigter

Denne rapport blev lavet for 11 timer og 24 minutter siden, kl. 13:58 UTC
Foreløbig gælder fra 24 på 15 UTC til 24 på 24 UTC
Vind 17 kt fra vest
Sigt 10 km eller mere
Spredte skyer i en højde af 3000 ft

TAF: EGAE 241358Z 2415/2424 26017KT 9999 SCT030

Vejrobservationer og prognoser fra mere end 4000 lufthavne (METAR og TAF).

De gule og røde prikker repræsenterer de meteorologiske stationer.

Flyt musen over at se navnet på stationen.

Så klik over at se vejr observationer og prognoser.

At skifte det kort: Klik på de grønne knapper med et sort kors for at zoome ind; på den grønne knap med en bindestreg for at zoome ud; eller på de grønne pile for tilstødende kort.


METAR-TAF: